Time;durP1;ratioP1;P1;durP2;ratioP2;P2;SDS_P1;SDS_P2;PMS_P1;PMS_P2;Temp;Humidity;BMP_temperature;BMP_pressure;BME280_temperature;BME280_humidity;BME280_pressure;Samples;Min_cycle;Max_cycle;Signal;HPM_P1;HPM_P2
2023/12/21 00:02:26;;;;;;;;;0.00;0.00;;;;;8.41;89.78;98907.22;5105783;28;9657;-55
2023/12/21 00:04:54;;;;;;;;;0.25;0.25;;;;;8.42;89.99;98908.88;5117279;28;8808;-56
2023/12/21 00:07:22;;;;;;;;;0.00;0.00;;;;;8.43;89.65;98892.00;5120640;28;8838;-56
2023/12/21 00:09:50;;;;;;;;;1.00;1.00;;;;;8.44;90.06;98898.16;5093841;28;8867;-54
2023/12/21 00:12:17;;;;;;;;;0.00;0.00;;;;;8.43;89.73;98884.03;5082122;28;8866;-56
2023/12/21 00:14:46;;;;;;;;;1.00;0.00;;;;;8.44;89.87;98888.34;5081926;28;8855;-57
2023/12/21 00:17:13;;;;;;;;;1.00;1.00;;;;;8.45;90.30;98891.88;5081840;28;8829;-55
2023/12/21 00:19:41;;;;;;;;;0.25;0.25;;;;;8.45;90.21;98891.88;5087939;28;8812;-57
2023/12/21 00:22:09;;;;;;;;;0.00;0.00;;;;;8.46;89.92;98880.28;5122647;28;8808;-55
2023/12/21 00:24:37;;;;;;;;;1.00;0.00;;;;;8.46;90.41;98883.78;5122614;28;9612;-56
2023/12/21 00:27:05;;;;;;;;;1.00;1.00;;;;;8.46;89.98;98875.81;5101356;28;8897;-57
2023/12/21 00:29:33;;;;;;;;;0.75;0.00;;;;;8.47;90.00;98879.28;5081690;28;8950;-57
2023/12/21 00:32:01;;;;;;;;;1.00;0.00;;;;;8.47;89.87;98882.81;5081901;28;8832;-56
2023/12/21 00:34:29;;;;;;;;;0.75;0.75;;;;;8.50;90.17;98887.00;5078830;28;8933;-57
2023/12/21 00:36:56;;;;;;;;;1.00;1.00;;;;;8.49;89.75;98887.94;5078754;28;8828;-57
2023/12/21 00:39:25;;;;;;;;;0.75;0.75;;;;;8.51;90.25;98896.63;5078378;28;8820;-55
2023/12/21 00:41:56;;;;;;;;;0.00;0.00;;;;;8.51;90.17;98883.38;5078725;28;8844;-57
2023/12/21 00:44:23;;;;;;;;;0.50;0.50;;;;;8.52;89.64;98877.09;5079383;28;8812;-57
2023/12/21 00:46:51;;;;;;;;;0.00;0.00;;;;;8.53;90.05;98890.19;5078501;28;8844;-57
2023/12/21 00:49:19;;;;;;;;;0.00;0.00;;;;;8.54;90.24;98886.59;5078419;28;8820;-57
2023/12/21 00:51:49;;;;;;;;;0.00;0.00;;;;;8.54;89.93;98875.97;5078046;28;8828;-57
2023/12/21 00:54:16;;;;;;;;;2.00;0.00;;;;;8.55;89.86;98869.69;5078102;28;8808;-57
2023/12/21 00:56:44;;;;;;;;;0.50;0.00;;;;;8.56;90.79;98863.41;5085228;28;8851;-57
2023/12/21 00:59:12;;;;;;;;;0.00;0.00;;;;;8.57;90.45;98857.13;5098036;28;8834;-57
2023/12/21 01:01:40;;;;;;;;;0.00;0.00;;;;;8.58;90.08;98858.78;5097500;28;8949;-58
2023/12/21 01:04:08;;;;;;;;;0.50;0.50;;;;;8.59;89.98;98852.50;5097720;28;8814;-57
2023/12/21 01:06:36;;;;;;;;;0.25;0.00;;;;;8.59;90.10;98854.34;5097971;28;8842;-57
2023/12/21 01:09:04;;;;;;;;;0.00;0.00;;;;;8.60;90.35;98848.06;5096406;28;8833;-57
2023/12/21 01:11:32;;;;;;;;;0.25;0.00;;;;;8.61;90.43;98855.03;5098171;28;8876;-56
2023/12/21 01:13:59;;;;;;;;;0.50;0.50;;;;;8.62;90.31;98854.06;5097787;28;8818;-58
2023/12/21 01:16:27;;;;;;;;;0.00;0.00;;;;;8.63;90.44;98845.13;5098379;28;8814;-57
2023/12/21 01:18:55;;;;;;;;;0.00;0.00;;;;;8.64;90.36;98845.00;5107240;28;8810;-57
2023/12/21 01:21:23;;;;;;;;;1.00;0.25;;;;;8.64;90.61;98830.88;5098451;28;8852;-57
2023/12/21 01:23:50;;;;;;;;;0.00;0.00;;;;;8.64;90.36;98822.91;5108392;28;8946;-58
2023/12/21 01:26:18;;;;;;;;;0.00;0.00;;;;;8.66;90.59;98831.59;5118442;28;8831;-58
2023/12/21 01:28:46;;;;;;;;;0.00;0.00;;;;;8.65;89.99;98827.28;5118052;28;8954;-59
2023/12/21 01:31:13;;;;;;;;;0.00;0.00;;;;;8.67;90.39;98809.38;5118234;28;8827;-58
2023/12/21 01:33:42;;;;;;;;;0.00;0.00;;;;;8.67;90.33;98807.56;5118596;28;8896;-57
2023/12/21 01:36:09;;;;;;;;;0.00;0.00;;;;;8.68;90.02;98806.56;5102662;28;8807;-57
2023/12/21 01:38:37;;;;;;;;;0.00;0.00;;;;;8.69;90.39;98783.53;5118307;28;8851;-56
2023/12/21 01:41:05;;;;;;;;;0.00;0.00;;;;;8.71;90.53;98781.56;5118044;28;9621;-57
2023/12/21 01:43:33;;;;;;;;;1.00;1.00;;;;;8.71;90.46;98774.47;5117859;28;8958;-57
2023/12/21 01:46:00;;;;;;;;;0.00;0.00;;;;;8.71;90.49;98761.19;5116836;28;8836;-57
2023/12/21 01:48:28;;;;;;;;;0.25;0.25;;;;;8.72;90.54;98760.22;5117851;28;8847;-55
2023/12/21 01:50:56;;;;;;;;;1.00;0.25;;;;;8.73;90.21;98750.47;5115721;28;8831;-54
2023/12/21 01:53:24;;;;;;;;;0.00;0.00;;;;;8.73;90.49;98731.88;5077116;28;8819;-56
2023/12/21 01:55:52;;;;;;;;;0.00;0.00;;;;;8.74;90.44;98730.91;5077252;28;8844;-55
2023/12/21 01:58:20;;;;;;;;;0.00;0.00;;;;;8.74;90.26;98738.84;5077210;28;8808;-57
2023/12/21 02:00:48;;;;;;;;;0.00;0.00;;;;;8.74;90.38;98736.22;5076347;28;8817;-56
2023/12/21 02:03:16;;;;;;;;;0.00;0.00;;;;;8.74;90.11;98739.69;5077010;28;8847;-56
2023/12/21 02:05:43;;;;;;;;;0.00;0.00;;;;;8.75;90.59;98741.34;5075916;28;9511;-55
2023/12/21 02:08:12;;;;;;;;;0.00;0.00;;;;;8.75;90.74;98757.28;5076437;28;8840;-54
2023/12/21 02:10:40;;;;;;;;;0.50;0.50;;;;;8.75;90.54;98730.72;5075369;28;8840;-55
2023/12/21 02:13:09;;;;;;;;;0.00;0.00;;;;;8.75;90.73;98722.78;5091604;28;8810;-55
2023/12/21 02:15:37;;;;;;;;;1.00;1.00;;;;;8.76;90.18;98723.63;5096553;28;8832;-57
2023/12/21 02:18:05;;;;;;;;;0.00;0.00;;;;;8.77;90.21;98720.00;5095904;28;8845;-56
2023/12/21 02:20:33;;;;;;;;;0.00;0.00;;;;;8.77;90.84;98723.50;5095512;28;8895;-56
2023/12/21 02:23:01;;;;;;;;;0.00;0.00;;;;;8.78;90.51;98726.97;5094978;28;8826;-57
2023/12/21 02:25:28;;;;;;;;;0.00;0.00;;;;;8.77;90.50;98728.81;5095156;28;8849;-56
2023/12/21 02:27:55;;;;;;;;;0.25;0.25;;;;;8.79;90.82;98716.22;5095432;28;8853;-55
2023/12/21 02:30:23;;;;;;;;;0.00;0.00;;;;;8.79;90.65;98710.91;5094447;28;8883;-56
2023/12/21 02:32:51;;;;;;;;;0.00;0.00;;;;;8.80;90.99;98720.53;5096270;28;8827;-56
2023/12/21 02:35:19;;;;;;;;;1.00;1.00;;;;;8.81;90.55;98716.91;5095451;28;8919;-57
2023/12/21 02:37:47;;;;;;;;;0.00;0.00;;;;;8.81;90.86;98705.47;5095958;28;8833;-57
2023/12/21 02:40:15;;;;;;;;;0.00;0.00;;;;;8.82;90.86;98697.34;5095582;28;8826;-54
2023/12/21 02:42:43;;;;;;;;;0.00;0.00;;;;;8.82;90.55;98696.53;5097607;28;8825;-56
2023/12/21 02:45:11;;;;;;;;;0.00;0.00;;;;;8.83;90.82;98706.97;5096418;28;8822;-57
2023/12/21 02:47:39;;;;;;;;;1.00;1.00;;;;;8.83;90.73;98685.75;5095702;28;8810;-55
2023/12/21 02:50:07;;;;;;;;;0.50;0.50;;;;;8.84;90.59;98700.72;5095835;28;8842;-56
2023/12/21 02:52:35;;;;;;;;;1.00;1.00;;;;;8.84;90.44;98695.41;5095559;28;8818;-54
2023/12/21 02:55:02;;;;;;;;;1.00;1.00;;;;;8.85;90.63;98686.47;5095561;28;8898;-54
2023/12/21 02:57:30;;;;;;;;;0.75;0.75;;;;;8.86;90.32;98674.88;5096677;28;8913;-56
2023/12/21 02:59:58;;;;;;;;;1.75;0.75;;;;;8.86;90.49;98677.53;5102074;28;8851;-55
2023/12/21 03:02:26;;;;;;;;;0.75;0.75;;;;;8.86;90.82;98658.94;5116423;28;8820;-55
2023/12/21 03:04:54;;;;;;;;;1.00;1.00;;;;;8.87;90.53;98659.75;5102751;28;8940;-55
2023/12/21 03:07:22;;;;;;;;;2.50;1.25;;;;;8.87;90.37;98655.31;5096287;28;8822;-56
2023/12/21 03:09:50;;;;;;;;;1.00;1.00;;;;;8.87;90.97;98639.38;5096429;28;8834;-54
2023/12/21 03:12:17;;;;;;;;;0.00;0.00;;;;;8.87;90.61;98628.75;5096216;28;8853;-56
2023/12/21 03:14:45;;;;;;;;;1.00;0.25;;;;;8.87;90.81;98631.41;5096197;28;8837;-56
2023/12/21 03:17:13;;;;;;;;;1.00;0.50;;;;;8.87;90.48;98628.75;5088250;28;9499;-55
2023/12/21 03:19:41;;;;;;;;;0.25;0.25;;;;;8.88;90.45;98617.16;5075839;28;8962;-54
2023/12/21 03:22:09;;;;;;;;;2.50;1.00;;;;;8.88;90.95;98625.13;5075551;28;8974;-57
2023/12/21 03:24:37;;;;;;;;;0.75;0.75;;;;;8.87;90.74;98622.59;5075881;28;8820;-57
2023/12/21 03:27:05;;;;;;;;;1.00;1.00;;;;;8.87;91.32;98610.19;5075804;28;8832;-56
2023/12/21 03:29:32;;;;;;;;;1.00;1.00;;;;;8.88;90.51;98622.47;5075370;28;8834;-57
2023/12/21 03:32:01;;;;;;;;;0.00;0.00;;;;;8.88;90.82;98614.50;5074779;28;8952;-56
2023/12/21 03:34:29;;;;;;;;;1.00;1.00;;;;;8.88;90.91;98613.69;5075272;28;8863;-56
2023/12/21 03:36:56;;;;;;;;;0.25;0.00;;;;;8.88;90.66;98598.56;5074276;28;8835;-57
2023/12/21 03:39:24;;;;;;;;;0.25;0.25;;;;;8.88;90.68;98601.22;5074486;28;8824;-55
2023/12/21 03:41:52;;;;;;;;;0.75;0.75;;;;;8.88;90.66;98577.34;5074677;28;8844;-57
2023/12/21 03:44:19;;;;;;;;;0.50;0.00;;;;;8.88;91.05;98572.03;5074600;28;8843;-56
2023/12/21 03:46:47;;;;;;;;;1.00;1.00;;;;;8.87;90.85;98549.13;5074699;28;8951;-56
2023/12/21 03:49:15;;;;;;;;;0.00;0.00;;;;;8.88;90.89;98534.88;5075072;28;8850;-57
2023/12/21 03:51:43;;;;;;;;;0.00;0.00;;;;;8.88;91.04;98540.16;5075453;28;8832;-54
2023/12/21 03:54:11;;;;;;;;;0.00;0.00;;;;;8.88;90.65;98540.16;5093705;28;8822;-55
2023/12/21 03:56:38;;;;;;;;;0.00;0.00;;;;;8.88;91.10;98521.59;5095810;28;8855;-54
2023/12/21 03:59:06;;;;;;;;;0.00;0.00;;;;;8.88;91.50;98537.53;5094855;28;8879;-57
2023/12/21 04:01:34;;;;;;;;;0.50;0.50;;;;;8.87;90.98;98527.88;5095153;28;8940;-56
2023/12/21 04:04:02;;;;;;;;;0.00;0.00;;;;;8.88;91.46;98512.81;5095369;28;8814;-57
2023/12/21 04:06:30;;;;;;;;;0.00;0.00;;;;;8.88;91.07;98513.63;5094112;28;8842;-56
2023/12/21 04:08:58;;;;;;;;;0.75;0.75;;;;;8.89;90.78;98506.53;5095965;28;8842;-56
2023/12/21 04:11:25;;;;;;;;;0.00;0.00;;;;;8.87;91.26;98498.69;5102589;28;8846;-55
2023/12/21 04:13:53;;;;;;;;;0.00;0.00;;;;;8.89;91.32;98498.56;5117655;28;9557;-56
2023/12/21 04:16:21;;;;;;;;;0.00;0.00;;;;;8.87;91.13;98506.66;5119479;28;8832;-56
2023/12/21 04:18:48;;;;;;;;;0.00;0.00;;;;;8.88;91.42;98518.94;5119529;28;8827;-55
2023/12/21 04:21:16;;;;;;;;;0.00;0.00;;;;;8.89;91.04;98507.34;5119940;28;9581;-57
2023/12/21 04:23:44;;;;;;;;;0.50;0.50;;;;;8.89;91.32;98515.28;5119799;28;8812;-54
2023/12/21 04:26:12;;;;;;;;;0.00;0.00;;;;;8.90;91.29;98502.88;5079968;28;8943;-57
2023/12/21 04:28:39;;;;;;;;;0.50;0.00;;;;;8.91;91.39;98500.09;5090248;28;8854;-56
2023/12/21 04:31:08;;;;;;;;;0.00;0.00;;;;;8.91;90.82;98485.97;5119073;28;8831;-57
2023/12/21 04:33:46;;;;;;;;;0.00;0.00;;;;;8.92;90.87;98482.31;5119246;28;8905;-54
2023/12/21 04:36:15;;;;;;;;;2.00;0.00;;;;;8.92;91.21;98482.31;5119046;28;8831;-57
2023/12/21 04:38:42;;;;;;;;;0.25;0.00;;;;;8.92;90.92;98485.81;5118998;28;8835;-55
2023/12/21 04:41:10;;;;;;;;;0.00;0.00;;;;;8.92;91.35;98482.31;5113101;28;8860;-56
2023/12/21 04:43:38;;;;;;;;;0.00;0.00;;;;;8.92;91.43;98453.97;5078378;28;8845;-54
2023/12/21 04:46:06;;;;;;;;;0.00;0.00;;;;;8.92;91.34;98430.09;5078492;28;8828;-56
2023/12/21 04:48:34;;;;;;;;;0.00;0.00;;;;;8.92;91.06;98403.53;5078242;28;8840;-56
2023/12/21 04:51:02;;;;;;;;;0.00;0.00;;;;;8.92;91.14;98397.38;5078275;28;8862;-57
2023/12/21 04:53:30;;;;;;;;;0.00;0.00;;;;;8.91;91.20;98399.22;5078191;28;8836;-56
2023/12/21 04:55:57;;;;;;;;;0.00;0.00;;;;;8.92;91.12;98408.00;5078662;28;8830;-57
2023/12/21 04:58:25;;;;;;;;;0.00;0.00;;;;;8.92;90.84;98403.53;5078422;28;9528;-57
2023/12/21 05:00:54;;;;;;;;;0.00;0.00;;;;;8.92;91.22;98408.84;5078150;28;8808;-55
2023/12/21 05:03:22;;;;;;;;;0.00;0.00;;;;;8.92;90.96;98398.22;5078390;28;9552;-56
2023/12/21 05:05:50;;;;;;;;;0.00;0.00;;;;;8.92;91.16;98382.31;5089547;28;8842;-56
2023/12/21 05:08:17;;;;;;;;;0.00;0.00;;;;;8.93;91.20;98377.81;5098079;28;8964;-57
2023/12/21 05:10:45;;;;;;;;;0.00;0.00;;;;;8.92;91.56;98369.03;5097145;28;8818;-56
2023/12/21 05:13:13;;;;;;;;;0.25;0.00;;;;;8.92;91.66;98366.38;5096853;28;8826;-56
2023/12/21 05:15:40;;;;;;;;;0.00;0.00;;;;;8.92;91.72;98355.75;5098348;28;9707;-56
2023/12/21 05:18:08;;;;;;;;;1.00;0.00;;;;;8.92;91.65;98355.75;5096983;28;8813;-57
2023/12/21 05:20:36;;;;;;;;;0.00;0.00;;;;;8.93;91.42;98346.81;5095857;28;8836;-57
2023/12/21 05:23:04;;;;;;;;;0.00;0.00;;;;;8.93;91.39;98328.22;5105072;28;8832;-57
2023/12/21 05:25:31;;;;;;;;;0.00;0.00;;;;;8.93;91.15;98335.34;5117894;28;8820;-57
2023/12/21 05:27:59;;;;;;;;;0.00;0.00;;;;;8.92;91.43;98334.53;5106165;28;8818;-57
2023/12/21 05:30:27;;;;;;;;;0.00;0.00;;;;;8.94;91.45;98326.38;5097764;28;8921;-56
2023/12/21 05:32:55;;;;;;;;;0.75;0.75;;;;;8.93;91.71;98325.56;5088698;28;8828;-57
2023/12/21 05:35:24;;;;;;;;;0.00;0.00;;;;;8.94;91.70;98326.38;5077319;28;8840;-56
2023/12/21 05:37:52;;;;;;;;;0.00;0.00;;;;;8.95;91.72;98325.44;5077479;28;8820;-57
2023/12/21 05:40:22;;;;;;;;;0.00;0.00;;;;;8.94;91.09;98316.63;5102557;28;8819;-57
2023/12/21 05:42:50;;;;;;;;;0.00;0.00;;;;;8.94;91.74;98327.22;5118103;28;8843;-56
2023/12/21 05:45:18;;;;;;;;;0.00;0.00;;;;;8.96;91.33;98300.53;5117974;28;8812;-55
2023/12/21 05:47:45;;;;;;;;;0.00;0.00;;;;;8.96;91.34;98304.00;5117581;28;8914;-56
2023/12/21 05:50:13;;;;;;;;;0.00;0.00;;;;;8.97;91.55;98311.00;5093834;28;8836;-55
2023/12/21 05:52:41;;;;;;;;;0.00;0.00;;;;;8.98;91.49;98306.53;5076535;28;8866;-56
2023/12/21 05:55:14;;;;;;;;;0.00;0.00;;;;;8.98;91.94;98312.66;5077369;28;8854;-56
2023/12/21 05:57:42;;;;;;;;;0.00;0.00;;;;;8.98;91.34;98314.50;5077382;28;9489;-56
2023/12/21 06:00:10;;;;;;;;;0.00;0.00;;;;;8.97;91.35;98305.69;5077211;28;8813;-56
2023/12/21 06:02:38;;;;;;;;;0.00;0.00;;;;;8.98;91.56;98296.72;5077024;28;8824;-56
2023/12/21 06:05:05;;;;;;;;;0.00;0.00;;;;;8.99;91.47;98298.41;5076590;28;8831;-56
2023/12/21 06:07:33;;;;;;;;;0.00;0.00;;;;;9.00;91.41;98310.69;5077507;28;8835;-56
2023/12/21 06:10:01;;;;;;;;;0.00;0.00;;;;;9.00;91.85;98305.41;5077355;28;8824;-56
2023/12/21 06:12:29;;;;;;;;;0.00;0.00;;;;;9.02;91.57;98297.25;5076910;28;8863;-55
2023/12/21 06:14:57;;;;;;;;;0.00;0.00;;;;;9.02;91.76;98278.66;5076930;28;8855;-56
2023/12/21 06:17:25;;;;;;;;;0.00;0.00;;;;;9.03;91.76;98272.41;5094293;28;8818;-54
2023/12/21 06:19:53;;;;;;;;;0.00;0.00;;;;;9.04;91.82;98290.81;5097140;28;8822;-56
2023/12/21 06:22:21;;;;;;;;;0.00;0.00;;;;;9.05;91.55;98281.84;5096152;28;8870;-53
2023/12/21 06:24:49;;;;;;;;;0.00;0.00;;;;;9.05;91.74;98281.84;5095766;28;8891;-56
2023/12/21 06:27:17;;;;;;;;;0.00;0.00;;;;;9.07;91.55;98290.53;5096096;28;8834;-55
2023/12/21 06:29:45;;;;;;;;;0.00;0.00;;;;;9.07;91.79;98284.38;5095962;28;9487;-56
2023/12/21 06:32:13;;;;;;;;;0.00;0.00;;;;;9.08;91.90;98281.56;5096032;28;9545;-56
2023/12/21 06:34:42;;;;;;;;;0.00;0.00;;;;;9.06;91.55;98272.94;5096317;28;8842;-56
2023/12/21 06:37:10;;;;;;;;;0.00;0.00;;;;;9.09;91.86;98277.91;5095784;28;8912;-56
2023/12/21 06:39:38;;;;;;;;;0.00;0.00;;;;;9.11;91.63;98272.47;5096101;28;8830;-56
2023/12/21 06:42:06;;;;;;;;;0.00;0.00;;;;;9.12;91.54;98274.94;5095058;28;8975;-55
2023/12/21 06:44:33;;;;;;;;;0.00;0.00;;;;;9.12;91.38;98259.00;5096177;28;8818;-55
2023/12/21 06:47:01;;;;;;;;;0.00;0.00;;;;;9.13;91.49;98249.25;5095743;28;8981;-54
2023/12/21 06:49:29;;;;;;;;;0.00;0.00;;;;;9.14;91.27;98248.25;5095995;28;9592;-55
2023/12/21 06:51:57;;;;;;;;;0.00;0.00;;;;;9.14;91.35;98217.22;5095415;28;8842;-56
2023/12/21 06:54:25;;;;;;;;;0.00;0.00;;;;;9.16;91.65;98230.34;5095657;28;8821;-55
2023/12/21 06:56:53;;;;;;;;;0.00;0.00;;;;;9.15;91.79;98218.91;5095111;28;9825;-55
2023/12/21 06:59:21;;;;;;;;;0.00;0.00;;;;;9.16;91.75;98233.84;5075702;28;8947;-53
2023/12/21 07:01:49;;;;;;;;;0.00;0.00;;;;;9.17;91.45;98226.69;5075086;28;8952;-56
2023/12/21 07:04:17;;;;;;;;;0.00;0.00;;;;;9.17;91.39;98222.22;5075040;28;8836;-54
2023/12/21 07:06:45;;;;;;;;;0.00;0.00;;;;;9.18;91.73;98229.19;5081284;28;8874;-55
2023/12/21 07:09:15;;;;;;;;;0.00;0.00;;;;;9.19;91.95;98204.31;5080353;28;8848;-55
2023/12/21 07:11:43;;;;;;;;;0.00;0.00;;;;;9.19;91.90;98183.06;5075014;28;8863;-54
2023/12/21 07:14:13;;;;;;;;;0.00;0.00;;;;;9.20;91.46;98190.03;5077549;28;8822;-54
2023/12/21 07:16:40;;;;;;;;;0.00;0.00;;;;;9.20;91.74;98189.22;5097590;28;8889;-56
2023/12/21 07:19:08;;;;;;;;;0.00;0.00;;;;;9.21;91.19;98175.78;5116262;28;8816;-53
2023/12/21 07:21:36;;;;;;;;;0.00;0.00;;;;;9.21;91.72;98170.47;5116218;28;8808;-55
2023/12/21 07:24:04;;;;;;;;;0.50;0.50;;;;;9.22;91.72;98165.97;5115529;28;8819;-55
2023/12/21 07:26:32;;;;;;;;;0.00;0.00;;;;;9.23;91.97;98149.06;5115634;28;8939;-53
2023/12/21 07:29:02;;;;;;;;;0.00;0.00;;;;;9.22;91.54;98139.44;5115027;28;8824;-56
2023/12/21 07:31:30;;;;;;;;;0.00;0.00;;;;;9.22;91.73;98134.97;5103645;28;9485;-55
2023/12/21 07:33:58;;;;;;;;;1.00;1.00;;;;;9.22;91.41;98129.66;5074963;28;8832;-55
2023/12/21 07:36:27;;;;;;;;;0.50;0.50;;;;;9.22;91.92;98129.66;5074836;28;8901;-55
2023/12/21 07:38:55;;;;;;;;;0.00;0.00;;;;;9.23;91.87;98109.22;5074932;28;8958;-54
2023/12/21 07:41:23;;;;;;;;;0.00;0.00;;;;;9.23;91.94;98118.03;5074757;28;8966;-56
2023/12/21 07:43:51;;;;;;;;;0.00;0.00;;;;;9.23;91.61;98110.06;5077101;28;8844;-54
2023/12/21 07:46:21;;;;;;;;;0.00;0.00;;;;;9.25;91.72;98112.53;5077751;28;8828;-54
2023/12/21 07:48:49;;;;;;;;;0.75;0.00;;;;;9.24;91.52;98100.25;5079070;28;9795;-55
2023/12/21 07:51:17;;;;;;;;;0.00;0.00;;;;;9.24;91.88;98085.16;5078511;28;8820;-55
2023/12/21 07:53:44;;;;;;;;;0.00;0.00;;;;;9.26;91.76;98077.06;5077817;28;8824;-55
2023/12/21 07:56:12;;;;;;;;;0.00;0.00;;;;;9.26;91.55;98077.06;5078232;28;8860;-55
2023/12/21 07:58:40;;;;;;;;;0.00;0.00;;;;;9.27;91.82;98070.75;5077465;28;8929;-53
2023/12/21 08:01:08;;;;;;;;;0.00;0.00;;;;;9.26;91.56;98059.28;5077442;28;8855;-55
2023/12/21 08:03:36;;;;;;;;;0.25;0.25;;;;;9.27;92.12;98038.88;5077390;28;8824;-54
2023/12/21 08:06:04;;;;;;;;;1.00;0.00;;;;;9.26;91.51;98040.69;5078373;28;8852;-54
2023/12/21 08:08:32;;;;;;;;;0.00;0.00;;;;;9.26;91.82;98032.72;5077437;28;8843;-53
2023/12/21 08:11:05;;;;;;;;;0.00;0.00;;;;;9.27;91.85;98014.97;5077640;28;8836;-53
2023/12/21 08:13:33;;;;;;;;;0.00;0.00;;;;;9.28;92.01;98021.94;5091762;28;8842;-55
2023/12/21 08:16:01;;;;;;;;;0.00;0.00;;;;;9.27;91.88;98023.75;5104716;28;9636;-54
2023/12/21 08:18:29;;;;;;;;;0.00;0.00;;;;;9.28;91.86;98006.81;5118958;28;8843;-54
2023/12/21 08:20:57;;;;;;;;;0.25;0.25;;;;;9.30;91.53;98017.28;5118896;28;8827;-53
2023/12/21 08:23:25;;;;;;;;;0.75;0.00;;;;;9.30;91.57;98004.88;5092085;28;8877;-55
2023/12/21 08:25:53;;;;;;;;;0.00;0.00;;;;;9.30;92.39;97994.25;5078589;28;8851;-56
2023/12/21 08:28:21;;;;;;;;;0.00;0.00;;;;;9.33;91.84;97990.44;5078769;28;8925;-56
2023/12/21 08:30:49;;;;;;;;;0.75;0.75;;;;;9.34;91.36;97997.41;5086077;28;8857;-54
2023/12/21 08:33:17;;;;;;;;;0.00;0.00;;;;;9.34;91.94;97995.56;5104554;28;8830;-54
2023/12/21 08:35:45;;;;;;;;;0.00;0.00;;;;;9.35;91.70;97999.88;5097178;28;8826;-55
2023/12/21 08:38:13;;;;;;;;;0.00;0.00;;;;;9.36;91.97;98012.19;5109874;28;8955;-54
2023/12/21 08:40:42;;;;;;;;;0.00;0.00;;;;;9.38;91.91;98018.16;5085847;28;8917;-54
2023/12/21 08:43:10;;;;;;;;;0.00;0.00;;;;;9.40;91.98;98021.47;5076583;28;8824;-56
2023/12/21 08:45:38;;;;;;;;;0.25;0.25;;;;;9.41;92.01;97996.56;5076394;28;8844;-56
2023/12/21 08:48:06;;;;;;;;;0.00;0.00;;;;;9.42;91.62;97997.41;5076901;28;8846;-56
2023/12/21 08:50:34;;;;;;;;;0.00;0.00;;;;;9.43;91.93;98007.88;5105583;28;8831;-56
2023/12/21 08:53:02;;;;;;;;;0.75;0.00;;;;;9.44;92.01;97990.97;5117096;28;9525;-56
2023/12/21 08:55:30;;;;;;;;;0.00;0.00;;;;;9.44;91.95;97990.97;5117181;28;8820;-56
2023/12/21 08:57:58;;;;;;;;;0.00;0.00;;;;;9.44;91.90;97988.31;5081107;28;8839;-56
2023/12/21 09:00:26;;;;;;;;;0.00;0.00;;;;;9.45;92.34;97971.38;5076816;28;8837;-55
2023/12/21 09:02:54;;;;;;;;;0.00;0.00;;;;;9.46;92.08;97962.41;5076509;28;8986;-53
2023/12/21 09:05:25;;;;;;;;;0.00;0.00;;;;;9.48;92.08;97967.56;5075563;28;8848;-56
2023/12/21 09:07:53;;;;;;;;;0.00;0.00;;;;;9.48;92.23;97959.59;5075085;28;8866;-56
2023/12/21 09:10:21;;;;;;;;;0.00;0.00;;;;;9.48;91.92;97955.09;5074798;28;8840;-56
2023/12/21 09:12:49;;;;;;;;;0.00;0.00;;;;;9.49;92.17;97951.44;5075370;28;8886;-56
2023/12/21 09:15:17;;;;;;;;;0.00;0.00;;;;;9.50;91.85;97947.78;5095368;28;8826;-55
2023/12/21 09:17:46;;;;;;;;;0.25;0.00;;;;;9.50;91.93;97958.41;5095721;28;8826;-56
2023/12/21 09:20:14;;;;;;;;;0.00;0.00;;;;;9.50;92.10;97953.09;5096564;28;9585;-55
2023/12/21 09:22:43;;;;;;;;;0.00;0.00;;;;;9.49;91.66;97938.16;5096493;28;8864;-56
2023/12/21 09:25:13;;;;;;;;;0.00;0.00;;;;;9.51;92.27;97935.34;5096983;28;8825;-55
2023/12/21 09:27:41;;;;;;;;;0.00;0.00;;;;;9.50;92.18;97926.53;5096669;28;8822;-56
2023/12/21 09:30:09;;;;;;;;;0.00;0.00;;;;;9.51;91.96;97904.31;5095779;28;8872;-54
2023/12/21 09:32:37;;;;;;;;;0.00;0.00;;;;;9.52;92.23;97899.81;5095041;28;8854;-55
2023/12/21 09:35:06;;;;;;;;;0.00;0.00;;;;;9.53;92.13;97886.34;5095879;28;8965;-55
2023/12/21 09:37:35;;;;;;;;;0.00;0.00;;;;;9.55;91.78;97889.66;5095861;28;8834;-56
2023/12/21 09:40:03;;;;;;;;;0.00;0.00;;;;;9.55;92.31;97887.00;5099156;28;8969;-56
2023/12/21 09:42:32;;;;;;;;;0.00;0.00;;;;;9.57;92.03;97869.06;5095929;28;8988;-56
2023/12/21 09:45:00;;;;;;;;;0.00;0.00;;;;;9.57;92.30;97868.25;5095247;28;8830;-56
2023/12/21 09:47:29;;;;;;;;;0.00;0.00;;;;;9.58;91.97;97870.72;5095990;28;8822;-56
2023/12/21 09:49:57;;;;;;;;;0.00;0.00;;;;;9.58;91.83;97868.06;5099919;28;8872;-56
2023/12/21 09:52:25;;;;;;;;;0.00;0.00;;;;;9.60;91.74;97876.72;5104531;28;8923;-56
2023/12/21 09:54:54;;;;;;;;;0.00;0.00;;;;;9.62;92.16;97868.56;5095398;28;8826;-57
2023/12/21 09:57:22;;;;;;;;;0.00;0.00;;;;;9.63;92.16;97887.00;5096010;28;8818;-55
2023/12/21 09:59:50;;;;;;;;;0.00;0.00;;;;;9.64;92.14;97858.63;5099869;28;8830;-55
2023/12/21 10:02:18;;;;;;;;;0.00;0.00;;;;;9.65;92.60;97854.97;5095737;28;8826;-57
2023/12/21 10:04:46;;;;;;;;;0.00;0.00;;;;;9.65;92.27;97853.13;5095736;28;8838;-56
2023/12/21 10:07:14;;;;;;;;;0.00;0.00;;;;;9.67;91.88;97856.47;5094377;28;8884;-56
2023/12/21 10:09:42;;;;;;;;;0.00;0.00;;;;;9.67;91.78;97848.50;5095880;28;8826;-55
2023/12/21 10:12:10;;;;;;;;;0.00;0.00;;;;;9.69;92.26;97849.16;5096509;28;8889;-55
2023/12/21 10:14:38;;;;;;;;;0.00;0.00;;;;;9.70;91.95;97837.50;5094840;28;8821;-54
2023/12/21 10:17:09;;;;;;;;;0.00;0.00;;;;;9.72;92.02;97829.38;5095389;28;8841;-56
2023/12/21 10:19:40;;;;;;;;;0.00;0.00;;;;;9.73;92.34;97831.84;5094502;28;8923;-54
2023/12/21 10:22:08;;;;;;;;;0.00;0.00;;;;;9.76;92.35;97834.19;5094472;28;8826;-56
2023/12/21 10:24:36;;;;;;;;;0.00;0.00;;;;;9.77;92.14;97833.19;5094642;28;9804;-56
2023/12/21 10:27:05;;;;;;;;;0.00;0.00;;;;;9.78;91.84;97832.19;5094598;28;8838;-55
2023/12/21 10:29:33;;;;;;;;;0.00;0.00;;;;;9.79;92.05;97831.19;5093855;28;8830;-55
2023/12/21 10:32:01;;;;;;;;;0.00;0.00;;;;;9.80;91.72;97818.75;5094412;28;8814;-53
2023/12/21 10:34:29;;;;;;;;;0.00;0.00;;;;;9.82;92.12;97819.38;5094477;28;8834;-55
2023/12/21 10:37:00;;;;;;;;;0.00;0.00;;;;;9.82;91.89;97798.97;5094733;28;8830;-55
2023/12/21 10:39:30;;;;;;;;;0.00;0.00;;;;;9.83;91.79;97819.22;5096167;28;8826;-56
2023/12/21 10:41:58;;;;;;;;;0.00;0.00;;;;;9.84;92.26;97801.44;5096287;28;8915;-55
2023/12/21 10:44:26;;;;;;;;;0.00;0.00;;;;;9.85;91.71;97797.78;5094647;28;8829;-54
2023/12/21 10:46:54;;;;;;;;;0.00;0.00;;;;;9.85;91.91;97771.19;5095626;28;8854;-56
2023/12/21 10:49:22;;;;;;;;;0.00;0.00;;;;;9.87;91.82;97783.31;5097742;28;9556;-56
2023/12/21 10:51:50;;;;;;;;;0.00;0.00;;;;;9.87;92.55;97780.66;5077662;28;8828;-54
2023/12/21 10:54:19;;;;;;;;;0.00;0.00;;;;;9.88;91.70;97777.00;5098977;28;8843;-56
2023/12/21 10:56:47;;;;;;;;;0.00;0.00;;;;;9.89;91.66;97772.53;5093707;28;8826;-55
2023/12/21 10:59:17;;;;;;;;;0.00;0.00;;;;;9.90;92.09;97763.53;5097969;28;8815;-56
2023/12/21 11:01:48;;;;;;;;;0.00;0.00;;;;;9.90;91.83;97775.03;5106630;28;8831;-55
2023/12/21 11:04:17;;;;;;;;;0.00;0.00;;;;;9.91;92.33;97755.41;5115305;28;8835;-55
2023/12/21 11:06:45;;;;;;;;;0.00;0.00;;;;;9.92;92.03;97741.13;5094935;28;8818;-55
2023/12/21 11:09:18;;;;;;;;;0.00;0.00;;;;;9.93;92.11;97742.78;5094783;28;8870;-55
2023/12/21 11:11:47;;;;;;;;;0.00;0.00;;;;;9.94;91.96;97752.41;5094242;28;8974;-56
2023/12/21 11:14:17;;;;;;;;;0.00;0.00;;;;;9.96;92.14;97744.25;5094411;28;8950;-55
2023/12/21 11:16:45;;;;;;;;;0.00;0.00;;;;;9.97;92.24;97737.94;5095723;28;8826;-56
2023/12/21 11:19:13;;;;;;;;;0.00;0.00;;;;;9.97;92.20;97728.16;5115162;28;8849;-56
2023/12/21 11:21:41;;;;;;;;;0.00;0.00;;;;;9.98;91.91;97713.00;5115241;28;8909;-56
2023/12/21 11:24:09;;;;;;;;;0.00;0.00;;;;;9.99;91.77;97704.88;5115072;28;8831;-56
2023/12/21 11:26:38;;;;;;;;;0.00;0.00;;;;;10.00;91.81;97730.44;5115674;28;8816;-55
2023/12/21 11:29:06;;;;;;;;;0.00;0.00;;;;;10.02;92.16;97709.00;5110819;28;8832;-56
2023/12/21 11:31:33;;;;;;;;;0.00;0.00;;;;;10.03;92.61;97710.69;5073682;28;9597;-56
2023/12/21 11:34:02;;;;;;;;;0.00;0.00;;;;;10.04;92.01;97707.88;5074084;28;8836;-55
2023/12/21 11:36:30;;;;;;;;;0.00;0.00;;;;;10.06;91.94;97705.88;5072966;28;8855;-55
2023/12/21 11:39:00;;;;;;;;;0.00;0.00;;;;;10.07;91.94;97712.84;5073127;28;8854;-56
2023/12/21 11:41:27;;;;;;;;;0.00;0.00;;;;;10.08;92.17;97714.50;5073372;28;8856;-56
2023/12/21 11:43:56;;;;;;;;;0.00;0.00;;;;;10.10;92.11;97699.19;5072673;28;8828;-54
2023/12/21 11:46:24;;;;;;;;;1.00;1.00;;;;;10.13;91.99;97690.88;5073269;28;8890;-56
2023/12/21 11:48:52;;;;;;;;;0.25;0.25;;;;;10.13;91.84;97695.34;5072679;28;8836;-56
2023/12/21 11:51:20;;;;;;;;;1.00;1.00;;;;;10.15;92.10;97696.84;5072958;28;8836;-55
2023/12/21 11:53:48;;;;;;;;;0.50;0.50;;;;;10.18;91.96;97703.63;5078239;28;8830;-54